Longford, Kansas
Current Conditions -  °F | °C
As of 12:53 AM on Sunday 23 Nov 2014 (Local Time) from KSLN Reporting Station
Overcast Overcast  
Wind Chill: 13°   Ceiling: 1300
Heat Index: 13°   Visibility: 10mi
Dew Point: 11°   Wind: 20mph
Humidity: 84%   Direction: 190°S
Pressure: 29.55"   Gusts: 26mph
Location:  39.17°N, 97.33°W
Report Text: KSLN 230653Z AUTO 19017G23KT 10SM OVC013 13/11 A2955 RMK AO2 PK WND 20027/0605 SLP001 T01330106
Loading
Personal Weather Stations






























Interactive Weather Map New forecast layout! Learn more

10-Day Weather Forecast

Advertisements
Track Severe Weather on mobile